sensor_id;sensor_type;location;lat;lon;timestamp;P1;durP1;ratioP1;P2;durP2;ratioP2
20984;SDS011;10651;47.552;7.606;2023-07-29T06:26:58;5.15;;;3.80;;
20984;SDS011;10651;47.552;7.606;2023-07-29T06:29:23;6.28;;;3.83;;
20984;SDS011;10651;47.552;7.606;2023-07-29T06:31:49;5.70;;;3.88;;
20984;SDS011;10651;47.552;7.606;2023-07-29T06:34:16;6.25;;;3.80;;
20984;SDS011;10651;47.552;7.606;2023-07-29T06:36:42;8.05;;;3.70;;
20984;SDS011;10651;47.552;7.606;2023-07-29T06:39:09;6.38;;;3.85;;
20984;SDS011;10651;47.552;7.606;2023-07-29T06:48:02;11.40;;;4.15;;
20984;SDS011;10651;47.552;7.606;2023-07-29T06:50:28;4.30;;;3.78;;
20984;SDS011;10651;47.552;7.606;2023-07-29T06:52:54;5.78;;;4.47;;
20984;SDS011;10651;47.552;7.606;2023-07-29T06:55:19;6.18;;;4.07;;
20984;SDS011;10651;47.552;7.606;2023-07-29T06:57:45;8.30;;;4.35;;
20984;SDS011;10651;47.552;7.606;2023-07-29T07:00:11;9.35;;;4.82;;
20984;SDS011;10651;47.552;7.606;2023-07-29T07:02:37;5.25;;;4.00;;
20984;SDS011;10651;47.552;7.606;2023-07-29T07:05:02;6.10;;;3.80;;
20984;SDS011;10651;47.552;7.606;2023-07-29T07:07:28;7.43;;;3.83;;
20984;SDS011;10651;47.552;7.606;2023-07-29T07:09:55;5.65;;;3.80;;
20984;SDS011;10651;47.552;7.606;2023-07-29T07:12:21;4.22;;;3.45;;
20984;SDS011;10651;47.552;7.606;2023-07-29T07:14:46;9.02;;;3.40;;
20984;SDS011;10651;47.552;7.606;2023-07-29T07:17:12;7.20;;;3.80;;
20984;SDS011;10651;47.552;7.606;2023-07-29T07:19:38;6.88;;;3.50;;
20984;SDS011;10651;47.552;7.606;2023-07-29T07:22:04;6.60;;;3.50;;
20984;SDS011;10651;47.552;7.606;2023-07-29T07:24:30;6.22;;;3.22;;
20984;SDS011;10651;47.552;7.606;2023-07-29T07:26:56;5.82;;;2.78;;
20984;SDS011;10651;47.552;7.606;2023-07-29T07:29:22;6.47;;;3.10;;
20984;SDS011;10651;47.552;7.606;2023-07-29T07:31:51;7.43;;;3.35;;
20984;SDS011;10651;47.552;7.606;2023-07-29T07:34:18;4.60;;;3.00;;
20984;SDS011;10651;47.552;7.606;2023-07-29T07:36:47;4.57;;;3.20;;
20984;SDS011;10651;47.552;7.606;2023-07-29T07:39:13;3.88;;;2.97;;
20984;SDS011;10651;47.552;7.606;2023-07-29T07:41:40;11.77;;;3.30;;
20984;SDS011;10651;47.552;7.606;2023-07-29T07:44:06;3.05;;;2.63;;
20984;SDS011;10651;47.552;7.606;2023-07-29T07:46:32;4.03;;;2.60;;
20984;SDS011;10651;47.552;7.606;2023-07-29T07:48:58;6.82;;;3.20;;
20984;SDS011;10651;47.552;7.606;2023-07-29T07:51:24;4.50;;;2.72;;
20984;SDS011;10651;47.552;7.606;2023-07-29T07:53:49;7.38;;;2.67;;
20984;SDS011;10651;47.552;7.606;2023-07-29T07:56:15;4.82;;;2.40;;
20984;SDS011;10651;47.552;7.606;2023-07-29T07:58:41;3.88;;;2.50;;
20984;SDS011;10651;47.552;7.606;2023-07-29T08:01:07;3.72;;;2.25;;
20984;SDS011;10651;47.552;7.606;2023-07-29T08:03:34;4.07;;;2.05;;
20984;SDS011;10651;47.552;7.606;2023-07-29T08:06:00;2.83;;;2.58;;
20984;SDS011;10651;47.552;7.606;2023-07-29T08:08:27;6.15;;;2.53;;
20984;SDS011;10651;47.552;7.606;2023-07-29T08:10:53;3.20;;;2.40;;
20984;SDS011;10651;47.552;7.606;2023-07-29T08:13:20;2.97;;;2.00;;
20984;SDS011;10651;47.552;7.606;2023-07-29T08:15:47;2.75;;;2.13;;
20984;SDS011;10651;47.552;7.606;2023-07-29T08:18:14;5.07;;;1.92;;
20984;SDS011;10651;47.552;7.606;2023-07-29T08:20:43;5.20;;;1.90;;
20984;SDS011;10651;47.552;7.606;2023-07-29T08:23:20;4.93;;;2.22;;
20984;SDS011;10651;47.552;7.606;2023-07-29T08:25:59;4.53;;;2.15;;
20984;SDS011;10651;47.552;7.606;2023-07-29T08:28:31;4.43;;;2.13;;
20984;SDS011;10651;47.552;7.606;2023-07-29T08:30:58;3.80;;;2.15;;
20984;SDS011;10651;47.552;7.606;2023-07-29T08:33:24;2.42;;;1.80;;
20984;SDS011;10651;47.552;7.606;2023-07-29T08:35:50;2.83;;;1.95;;
20984;SDS011;10651;47.552;7.606;2023-07-29T08:38:16;3.83;;;2.03;;
20984;SDS011;10651;47.552;7.606;2023-07-29T08:40:45;3.05;;;2.10;;
20984;SDS011;10651;47.552;7.606;2023-07-29T08:43:29;3.28;;;2.10;;
20984;SDS011;10651;47.552;7.606;2023-07-29T08:45:57;3.25;;;2.40;;
20984;SDS011;10651;47.552;7.606;2023-07-29T08:48:32;2.88;;;2.20;;
20984;SDS011;10651;47.552;7.606;2023-07-29T08:51:09;2.85;;;2.08;;
20984;SDS011;10651;47.552;7.606;2023-07-29T08:53:36;3.10;;;2.05;;
20984;SDS011;10651;47.552;7.606;2023-07-29T08:56:03;2.95;;;2.33;;
20984;SDS011;10651;47.552;7.606;2023-07-29T08:58:30;3.17;;;2.10;;
20984;SDS011;10651;47.552;7.606;2023-07-29T09:00:57;4.38;;;2.10;;
20984;SDS011;10651;47.552;7.606;2023-07-29T09:03:23;3.55;;;2.33;;
20984;SDS011;10651;47.552;7.606;2023-07-29T09:05:48;2.88;;;2.08;;
20984;SDS011;10651;47.552;7.606;2023-07-29T09:08:15;4.25;;;2.25;;
20984;SDS011;10651;47.552;7.606;2023-07-29T09:10:42;2.33;;;1.98;;
20984;SDS011;10651;47.552;7.606;2023-07-29T09:13:07;3.83;;;2.10;;
20984;SDS011;10651;47.552;7.606;2023-07-29T09:15:34;1.77;;;1.67;;
20984;SDS011;10651;47.552;7.606;2023-07-29T09:18:10;2.65;;;2.15;;
20984;SDS011;10651;47.552;7.606;2023-07-29T09:20:39;3.63;;;2.30;;
20984;SDS011;10651;47.552;7.606;2023-07-29T09:23:07;4.03;;;2.65;;
20984;SDS011;10651;47.552;7.606;2023-07-29T09:25:37;3.33;;;1.88;;
20984;SDS011;10651;47.552;7.606;2023-07-29T09:28:08;3.65;;;2.20;;
20984;SDS011;10651;47.552;7.606;2023-07-29T09:30:36;4.05;;;2.40;;
20984;SDS011;10651;47.552;7.606;2023-07-29T09:33:08;4.57;;;2.20;;
20984;SDS011;10651;47.552;7.606;2023-07-29T09:35:34;5.32;;;2.30;;
20984;SDS011;10651;47.552;7.606;2023-07-29T09:38:04;2.17;;;1.98;;
20984;SDS011;10651;47.552;7.606;2023-07-29T09:40:37;2.95;;;2.15;;
20984;SDS011;10651;47.552;7.606;2023-07-29T09:43:05;3.55;;;2.28;;
20984;SDS011;10651;47.552;7.606;2023-07-29T09:45:33;2.25;;;2.05;;
20984;SDS011;10651;47.552;7.606;2023-07-29T09:48:00;3.92;;;2.50;;
20984;SDS011;10651;47.552;7.606;2023-07-29T09:50:27;2.40;;;2.20;;
20984;SDS011;10651;47.552;7.606;2023-07-29T09:52:53;6.20;;;2.83;;
20984;SDS011;10651;47.552;7.606;2023-07-29T09:55:24;2.50;;;2.13;;
20984;SDS011;10651;47.552;7.606;2023-07-29T09:57:56;3.97;;;2.47;;
20984;SDS011;10651;47.552;7.606;2023-07-29T10:00:30;3.17;;;2.28;;
20984;SDS011;10651;47.552;7.606;2023-07-29T10:02:57;4.38;;;2.10;;
20984;SDS011;10651;47.552;7.606;2023-07-29T10:05:25;4.00;;;2.10;;
20984;SDS011;10651;47.552;7.606;2023-07-29T10:07:52;4.60;;;2.72;;
20984;SDS011;10651;47.552;7.606;2023-07-29T10:10:19;2.85;;;2.40;;
20984;SDS011;10651;47.552;7.606;2023-07-29T10:12:45;3.50;;;2.38;;
20984;SDS011;10651;47.552;7.606;2023-07-29T10:15:11;2.22;;;2.03;;
20984;SDS011;10651;47.552;7.606;2023-07-29T10:17:38;2.92;;;2.47;;
20984;SDS011;10651;47.552;7.606;2023-07-29T10:20:05;2.92;;;2.53;;
20984;SDS011;10651;47.552;7.606;2023-07-29T10:22:34;3.78;;;2.50;;
20984;SDS011;10651;47.552;7.606;2023-07-29T10:25:03;2.92;;;2.30;;
20984;SDS011;10651;47.552;7.606;2023-07-29T10:27:43;7.32;;;2.40;;
20984;SDS011;10651;47.552;7.606;2023-07-29T10:30:14;5.10;;;2.45;;
20984;SDS011;10651;47.552;7.606;2023-07-29T10:32:43;5.18;;;2.95;;
20984;SDS011;10651;47.552;7.606;2023-07-29T10:35:13;3.40;;;2.30;;
20984;SDS011;10651;47.552;7.606;2023-07-29T10:37:42;4.68;;;2.85;;
20984;SDS011;10651;47.552;7.606;2023-07-29T10:40:10;3.05;;;2.45;;
20984;SDS011;10651;47.552;7.606;2023-07-29T10:42:37;4.13;;;2.50;;
20984;SDS011;10651;47.552;7.606;2023-07-29T10:45:19;3.17;;;2.80;;
20984;SDS011;10651;47.552;7.606;2023-07-29T10:47:46;4.38;;;2.70;;
20984;SDS011;10651;47.552;7.606;2023-07-29T10:50:19;3.40;;;2.50;;
20984;SDS011;10651;47.552;7.606;2023-07-29T10:52:50;3.80;;;2.72;;
20984;SDS011;10651;47.552;7.606;2023-07-29T10:55:27;4.63;;;2.65;;
20984;SDS011;10651;47.552;7.606;2023-07-29T10:58:09;4.20;;;2.75;;
20984;SDS011;10651;47.552;7.606;2023-07-29T11:00:38;5.55;;;2.60;;
20984;SDS011;10651;47.552;7.606;2023-07-29T11:03:08;4.03;;;2.95;;
20984;SDS011;10651;47.552;7.606;2023-07-29T11:05:48;5.47;;;2.95;;
20984;SDS011;10651;47.552;7.606;2023-07-29T11:08:19;4.45;;;2.80;;
20984;SDS011;10651;47.552;7.606;2023-07-29T11:11:01;3.47;;;2.70;;
20984;SDS011;10651;47.552;7.606;2023-07-29T11:13:29;3.22;;;2.35;;
20984;SDS011;10651;47.552;7.606;2023-07-29T11:15:56;3.97;;;2.47;;
20984;SDS011;10651;47.552;7.606;2023-07-29T11:18:31;5.30;;;2.78;;
20984;SDS011;10651;47.552;7.606;2023-07-29T11:20:59;3.40;;;2.60;;
20984;SDS011;10651;47.552;7.606;2023-07-29T11:26:14;3.75;;;2.72;;
20984;SDS011;10651;47.552;7.606;2023-07-29T11:28:40;7.38;;;2.92;;
20984;SDS011;10651;47.552;7.606;2023-07-29T11:31:06;4.03;;;2.50;;
20984;SDS011;10651;47.552;7.606;2023-07-29T11:33:31;2.78;;;2.50;;
20984;SDS011;10651;47.552;7.606;2023-07-29T11:35:57;5.60;;;3.10;;
20984;SDS011;10651;47.552;7.606;2023-07-29T11:38:23;4.93;;;3.40;;
20984;SDS011;10651;47.552;7.606;2023-07-29T11:40:55;4.35;;;2.90;;
20984;SDS011;10651;47.552;7.606;2023-07-29T11:43:23;4.72;;;2.60;;
20984;SDS011;10651;47.552;7.606;2023-07-29T11:45:49;5.88;;;3.05;;
20984;SDS011;10651;47.552;7.606;2023-07-29T11:48:16;3.65;;;3.05;;
20984;SDS011;10651;47.552;7.606;2023-07-29T11:50:41;3.83;;;2.65;;
20984;SDS011;10651;47.552;7.606;2023-07-29T11:53:08;3.58;;;2.90;;
20984;SDS011;10651;47.552;7.606;2023-07-29T11:55:34;3.90;;;2.55;;
20984;SDS011;10651;47.552;7.606;2023-07-29T11:58:00;3.90;;;2.90;;
20984;SDS011;10651;47.552;7.606;2023-07-29T12:00:27;5.20;;;2.75;;
20984;SDS011;10651;47.552;7.606;2023-07-29T12:02:53;3.40;;;2.70;;
20984;SDS011;10651;47.552;7.606;2023-07-29T12:05:20;2.40;;;2.08;;
20984;SDS011;10651;47.552;7.606;2023-07-29T12:07:47;2.60;;;2.13;;
20984;SDS011;10651;47.552;7.606;2023-07-29T12:10:13;2.50;;;2.08;;
20984;SDS011;10651;47.552;7.606;2023-07-29T12:12:46;3.08;;;2.42;;
20984;SDS011;10651;47.552;7.606;2023-07-29T12:15:13;4.43;;;2.67;;
20984;SDS011;10651;47.552;7.606;2023-07-29T12:17:47;2.92;;;2.22;;
20984;SDS011;10651;47.552;7.606;2023-07-29T12:20:13;2.97;;;2.63;;
20984;SDS011;10651;47.552;7.606;2023-07-29T12:22:38;5.32;;;2.88;;
20984;SDS011;10651;47.552;7.606;2023-07-29T12:25:05;4.18;;;2.80;;
20984;SDS011;10651;47.552;7.606;2023-07-29T12:27:31;3.55;;;2.35;;
20984;SDS011;10651;47.552;7.606;2023-07-29T12:29:57;8.15;;;2.40;;
20984;SDS011;10651;47.552;7.606;2023-07-29T12:32:25;3.42;;;2.70;;
20984;SDS011;10651;47.552;7.606;2023-07-29T12:34:52;2.88;;;2.42;;
20984;SDS011;10651;47.552;7.606;2023-07-29T12:37:18;3.42;;;2.60;;
20984;SDS011;10651;47.552;7.606;2023-07-29T12:39:44;4.53;;;2.50;;
20984;SDS011;10651;47.552;7.606;2023-07-29T12:42:10;3.42;;;2.78;;
20984;SDS011;10651;47.552;7.606;2023-07-29T12:44:37;5.82;;;2.60;;
20984;SDS011;10651;47.552;7.606;2023-07-29T12:47:03;2.90;;;2.55;;
20984;SDS011;10651;47.552;7.606;2023-07-29T12:49:31;4.25;;;2.67;;
20984;SDS011;10651;47.552;7.606;2023-07-29T12:51:57;6.78;;;3.30;;
20984;SDS011;10651;47.552;7.606;2023-07-29T12:54:23;3.45;;;2.72;;
20984;SDS011;10651;47.552;7.606;2023-07-29T12:56:49;3.78;;;2.92;;
20984;SDS011;10651;47.552;7.606;2023-07-29T12:59:15;7.30;;;3.10;;
20984;SDS011;10651;47.552;7.606;2023-07-29T13:01:41;4.22;;;3.03;;
20984;SDS011;10651;47.552;7.606;2023-07-29T13:04:09;4.93;;;3.50;;
20984;SDS011;10651;47.552;7.606;2023-07-29T13:06:35;4.07;;;2.78;;
20984;SDS011;10651;47.552;7.606;2023-07-29T13:09:01;6.10;;;3.70;;
20984;SDS011;10651;47.552;7.606;2023-07-29T13:11:28;4.60;;;2.97;;
20984;SDS011;10651;47.552;7.606;2023-07-29T13:13:54;4.88;;;3.10;;
20984;SDS011;10651;47.552;7.606;2023-07-29T13:16:19;4.13;;;3.35;;
20984;SDS011;10651;47.552;7.606;2023-07-29T13:18:45;10.25;;;3.15;;
20984;SDS011;10651;47.552;7.606;2023-07-29T13:21:11;5.10;;;3.55;;
20984;SDS011;10651;47.552;7.606;2023-07-29T13:23:36;9.38;;;3.92;;
20984;SDS011;10651;47.552;7.606;2023-07-29T13:26:02;5.30;;;3.20;;
20984;SDS011;10651;47.552;7.606;2023-07-29T13:28:28;4.78;;;3.38;;
20984;SDS011;10651;47.552;7.606;2023-07-29T13:30:54;6.97;;;3.30;;
20984;SDS011;10651;47.552;7.606;2023-07-29T13:33:19;6.75;;;3.92;;
20984;SDS011;10651;47.552;7.606;2023-07-29T13:35:45;6.80;;;3.78;;
20984;SDS011;10651;47.552;7.606;2023-07-29T13:38:11;5.25;;;3.58;;
20984;SDS011;10651;47.552;7.606;2023-07-29T13:40:37;8.43;;;3.92;;
20984;SDS011;10651;47.552;7.606;2023-07-29T13:43:02;5.60;;;4.03;;
20984;SDS011;10651;47.552;7.606;2023-07-29T13:45:30;6.78;;;3.70;;
20984;SDS011;10651;47.552;7.606;2023-07-29T13:47:56;6.07;;;4.60;;
20984;SDS011;10651;47.552;7.606;2023-07-29T13:50:22;4.75;;;3.63;;
20984;SDS011;10651;47.552;7.606;2023-07-29T13:52:47;6.05;;;3.55;;
20984;SDS011;10651;47.552;7.606;2023-07-29T13:55:13;6.85;;;4.25;;
20984;SDS011;10651;47.552;7.606;2023-07-29T13:57:39;6.15;;;3.90;;
20984;SDS011;10651;47.552;7.606;2023-07-29T14:00:05;4.60;;;3.50;;
20984;SDS011;10651;47.552;7.606;2023-07-29T14:02:32;4.43;;;3.38;;
20984;SDS011;10651;47.552;7.606;2023-07-29T14:04:58;4.47;;;2.60;;
20984;SDS011;10651;47.552;7.606;2023-07-29T14:07:24;4.55;;;2.70;;
20984;SDS011;10651;47.552;7.606;2023-07-29T14:09:51;4.03;;;2.78;;
20984;SDS011;10651;47.552;7.606;2023-07-29T14:12:17;4.60;;;2.70;;
20984;SDS011;10651;47.552;7.606;2023-07-29T14:14:44;5.20;;;2.65;;
20984;SDS011;10651;47.552;7.606;2023-07-29T14:17:10;5.45;;;2.55;;
20984;SDS011;10651;47.552;7.606;2023-07-29T14:19:36;3.05;;;2.30;;
20984;SDS011;10651;47.552;7.606;2023-07-29T14:22:02;3.28;;;2.60;;
20984;SDS011;10651;47.552;7.606;2023-07-29T14:24:28;4.50;;;2.67;;
20984;SDS011;10651;47.552;7.606;2023-07-29T14:26:54;3.10;;;2.60;;
20984;SDS011;10651;47.552;7.606;2023-07-29T14:29:20;6.57;;;2.58;;
20984;SDS011;10651;47.552;7.606;2023-07-29T14:31:46;3.85;;;2.58;;
20984;SDS011;10651;47.552;7.606;2023-07-29T14:34:12;3.67;;;2.72;;
20984;SDS011;10651;47.552;7.606;2023-07-29T14:36:38;7.72;;;3.72;;
20984;SDS011;10651;47.552;7.606;2023-07-29T14:39:04;3.50;;;2.85;;
20984;SDS011;10651;47.552;7.606;2023-07-29T14:41:30;4.60;;;2.90;;
20984;SDS011;10651;47.552;7.606;2023-07-29T14:43:56;5.50;;;2.92;;
20984;SDS011;10651;47.552;7.606;2023-07-29T14:46:22;3.35;;;3.00;;
20984;SDS011;10651;47.552;7.606;2023-07-29T14:48:48;5.82;;;3.20;;
20984;SDS011;10651;47.552;7.606;2023-07-29T14:51:14;19.33;;;12.73;;
20984;SDS011;10651;47.552;7.606;2023-07-29T14:53:39;3.63;;;2.70;;
20984;SDS011;10651;47.552;7.606;2023-07-29T14:56:05;5.30;;;3.05;;
20984;SDS011;10651;47.552;7.606;2023-07-29T14:58:31;5.63;;;3.08;;
20984;SDS011;10651;47.552;7.606;2023-07-29T15:00:57;3.97;;;2.53;;
20984;SDS011;10651;47.552;7.606;2023-07-29T15:03:23;4.75;;;3.08;;
20984;SDS011;10651;47.552;7.606;2023-07-29T15:05:50;9.75;;;3.10;;
20984;SDS011;10651;47.552;7.606;2023-07-29T15:08:16;5.28;;;2.45;;
20984;SDS011;10651;47.552;7.606;2023-07-29T15:10:49;7.70;;;3.00;;
20984;SDS011;10651;47.552;7.606;2023-07-29T15:13:15;8.55;;;2.58;;
20984;SDS011;10651;47.552;7.606;2023-07-29T15:15:41;5.97;;;2.75;;
20984;SDS011;10651;47.552;7.606;2023-07-29T15:18:08;3.47;;;2.88;;
20984;SDS011;10651;47.552;7.606;2023-07-29T15:20:34;4.30;;;3.05;;
20984;SDS011;10651;47.552;7.606;2023-07-29T15:22:59;5.72;;;2.97;;
20984;SDS011;10651;47.552;7.606;2023-07-29T15:25:25;4.55;;;3.15;;
20984;SDS011;10651;47.552;7.606;2023-07-29T15:27:51;4.13;;;2.95;;
20984;SDS011;10651;47.552;7.606;2023-07-29T15:30:17;4.85;;;2.95;;
20984;SDS011;10651;47.552;7.606;2023-07-29T15:32:44;3.72;;;3.20;;
20984;SDS011;10651;47.552;7.606;2023-07-29T15:35:10;10.95;;;3.40;;
20984;SDS011;10651;47.552;7.606;2023-07-29T15:37:36;9.15;;;3.80;;
20984;SDS011;10651;47.552;7.606;2023-07-29T15:40:02;5.07;;;3.78;;
20984;SDS011;10651;47.552;7.606;2023-07-29T15:42:29;5.60;;;3.60;;
20984;SDS011;10651;47.552;7.606;2023-07-29T15:44:54;7.00;;;4.10;;
20984;SDS011;10651;47.552;7.606;2023-07-29T15:47:20;8.93;;;4.55;;
20984;SDS011;10651;47.552;7.606;2023-07-29T15:49:46;7.57;;;3.90;;
20984;SDS011;10651;47.552;7.606;2023-07-29T15:52:12;4.50;;;4.00;;
20984;SDS011;10651;47.552;7.606;2023-07-29T15:54:39;4.45;;;3.53;;
20984;SDS011;10651;47.552;7.606;2023-07-29T15:57:06;7.95;;;4.55;;
20984;SDS011;10651;47.552;7.606;2023-07-29T15:59:32;4.75;;;3.75;;
20984;SDS011;10651;47.552;7.606;2023-07-29T16:01:58;7.72;;;3.80;;
20984;SDS011;10651;47.552;7.606;2023-07-29T16:04:25;6.85;;;3.72;;
20984;SDS011;10651;47.552;7.606;2023-07-29T16:06:51;7.40;;;3.83;;
20984;SDS011;10651;47.552;7.606;2023-07-29T16:09:16;8.32;;;3.65;;
20984;SDS011;10651;47.552;7.606;2023-07-29T16:11:46;6.70;;;3.85;;
20984;SDS011;10651;47.552;7.606;2023-07-29T16:14:15;6.65;;;4.07;;
20984;SDS011;10651;47.552;7.606;2023-07-29T16:16:40;6.10;;;3.72;;
20984;SDS011;10651;47.552;7.606;2023-07-29T16:19:06;7.45;;;3.92;;
20984;SDS011;10651;47.552;7.606;2023-07-29T16:21:34;6.05;;;4.30;;
20984;SDS011;10651;47.552;7.606;2023-07-29T16:24:00;6.25;;;4.10;;
20984;SDS011;10651;47.552;7.606;2023-07-29T16:26:26;10.65;;;4.70;;
20984;SDS011;10651;47.552;7.606;2023-07-29T16:28:51;6.38;;;3.95;;
20984;SDS011;10651;47.552;7.606;2023-07-29T16:31:17;8.02;;;4.05;;
20984;SDS011;10651;47.552;7.606;2023-07-29T16:33:44;15.43;;;4.30;;
20984;SDS011;10651;47.552;7.606;2023-07-29T16:36:09;10.07;;;4.13;;
20984;SDS011;10651;47.552;7.606;2023-07-29T16:38:35;6.22;;;4.10;;
20984;SDS011;10651;47.552;7.606;2023-07-29T16:41:01;6.13;;;4.10;;
20984;SDS011;10651;47.552;7.606;2023-07-29T16:43:27;7.10;;;4.32;;
20984;SDS011;10651;47.552;7.606;2023-07-29T16:45:52;10.68;;;4.70;;
20984;SDS011;10651;47.552;7.606;2023-07-29T16:48:18;5.97;;;4.22;;
20984;SDS011;10651;47.552;7.606;2023-07-29T16:50:44;8.48;;;4.13;;
20984;SDS011;10651;47.552;7.606;2023-07-29T16:53:10;6.70;;;4.10;;
20984;SDS011;10651;47.552;7.606;2023-07-29T16:55:36;6.75;;;3.85;;
20984;SDS011;10651;47.552;7.606;2023-07-29T16:58:02;6.43;;;4.13;;
20984;SDS011;10651;47.552;7.606;2023-07-29T17:00:27;6.63;;;3.83;;
20984;SDS011;10651;47.552;7.606;2023-07-29T17:02:53;6.35;;;4.55;;
20984;SDS011;10651;47.552;7.606;2023-07-29T17:05:19;5.03;;;3.72;;
20984;SDS011;10651;47.552;7.606;2023-07-29T17:07:45;9.27;;;4.05;;
20984;SDS011;10651;47.552;7.606;2023-07-29T17:10:10;5.43;;;4.25;;
20984;SDS011;10651;47.552;7.606;2023-07-29T17:12:36;5.25;;;4.32;;
20984;SDS011;10651;47.552;7.606;2023-07-29T17:15:02;6.32;;;4.07;;
20984;SDS011;10651;47.552;7.606;2023-07-29T17:17:28;4.93;;;4.40;;
20984;SDS011;10651;47.552;7.606;2023-07-29T17:19:54;7.47;;;4.47;;
20984;SDS011;10651;47.552;7.606;2023-07-29T17:22:19;6.88;;;3.72;;
20984;SDS011;10651;47.552;7.606;2023-07-29T17:24:45;5.10;;;4.30;;
20984;SDS011;10651;47.552;7.606;2023-07-29T17:27:11;5.43;;;4.13;;
20984;SDS011;10651;47.552;7.606;2023-07-29T17:29:37;7.57;;;4.07;;
20984;SDS011;10651;47.552;7.606;2023-07-29T17:32:03;8.52;;;4.50;;
20984;SDS011;10651;47.552;7.606;2023-07-29T17:34:29;7.10;;;4.05;;
20984;SDS011;10651;47.552;7.606;2023-07-29T17:36:54;4.85;;;3.85;;
20984;SDS011;10651;47.552;7.606;2023-07-29T17:39:20;6.65;;;3.90;;
20984;SDS011;10651;47.552;7.606;2023-07-29T17:41:46;6.35;;;4.15;;
20984;SDS011;10651;47.552;7.606;2023-07-29T17:44:11;7.47;;;4.70;;
20984;SDS011;10651;47.552;7.606;2023-07-29T17:46:37;6.70;;;4.65;;
20984;SDS011;10651;47.552;7.606;2023-07-29T17:49:03;6.75;;;4.78;;
20984;SDS011;10651;47.552;7.606;2023-07-29T17:51:29;5.53;;;4.80;;
20984;SDS011;10651;47.552;7.606;2023-07-29T17:53:54;6.38;;;5.00;;
20984;SDS011;10651;47.552;7.606;2023-07-29T17:56:20;9.20;;;5.35;;
20984;SDS011;10651;47.552;7.606;2023-07-29T17:58:46;6.78;;;5.38;;
20984;SDS011;10651;47.552;7.606;2023-07-29T18:01:12;9.90;;;5.70;;
20984;SDS011;10651;47.552;7.606;2023-07-29T18:03:37;7.35;;;5.30;;
20984;SDS011;10651;47.552;7.606;2023-07-29T18:06:10;10.35;;;5.97;;
20984;SDS011;10651;47.552;7.606;2023-07-29T18:08:40;10.43;;;6.03;;
20984;SDS011;10651;47.552;7.606;2023-07-29T18:11:06;11.63;;;5.85;;
20984;SDS011;10651;47.552;7.606;2023-07-29T18:13:32;7.88;;;5.95;;
20984;SDS011;10651;47.552;7.606;2023-07-29T18:15:59;8.43;;;5.43;;
20984;SDS011;10651;47.552;7.606;2023-07-29T18:18:26;7.50;;;5.10;;
20984;SDS011;10651;47.552;7.606;2023-07-29T18:20:52;8.10;;;5.22;;
20984;SDS011;10651;47.552;7.606;2023-07-29T18:23:17;7.13;;;4.57;;
20984;SDS011;10651;47.552;7.606;2023-07-29T18:25:43;7.53;;;5.32;;
20984;SDS011;10651;47.552;7.606;2023-07-29T18:28:09;5.43;;;4.35;;
20984;SDS011;10651;47.552;7.606;2023-07-29T18:30:35;8.80;;;4.85;;
20984;SDS011;10651;47.552;7.606;2023-07-29T18:33:02;5.82;;;4.93;;
20984;SDS011;10651;47.552;7.606;2023-07-29T18:35:28;6.63;;;5.05;;
20984;SDS011;10651;47.552;7.606;2023-07-29T18:37:54;8.35;;;4.75;;
20984;SDS011;10651;47.552;7.606;2023-07-29T18:40:26;9.77;;;4.90;;
20984;SDS011;10651;47.552;7.606;2023-07-29T18:42:53;5.88;;;4.43;;
20984;SDS011;10651;47.552;7.606;2023-07-29T18:45:19;6.30;;;4.97;;
20984;SDS011;10651;47.552;7.606;2023-07-29T18:47:45;7.72;;;4.75;;
20984;SDS011;10651;47.552;7.606;2023-07-29T18:50:10;7.70;;;4.80;;
20984;SDS011;10651;47.552;7.606;2023-07-29T18:52:37;11.30;;;4.28;;
20984;SDS011;10651;47.552;7.606;2023-07-29T18:55:02;9.00;;;5.07;;
20984;SDS011;10651;47.552;7.606;2023-07-29T18:57:28;9.30;;;5.20;;
20984;SDS011;10651;47.552;7.606;2023-07-29T18:59:54;7.65;;;4.90;;
20984;SDS011;10651;47.552;7.606;2023-07-29T19:02:21;8.15;;;5.13;;
20984;SDS011;10651;47.552;7.606;2023-07-29T19:04:46;7.68;;;4.45;;
20984;SDS011;10651;47.552;7.606;2023-07-29T19:07:13;9.32;;;4.93;;
20984;SDS011;10651;47.552;7.606;2023-07-29T19:09:42;6.28;;;5.13;;
20984;SDS011;10651;47.552;7.606;2023-07-29T19:12:09;6.22;;;4.88;;
20984;SDS011;10651;47.552;7.606;2023-07-29T19:14:35;7.07;;;4.63;;
20984;SDS011;10651;47.552;7.606;2023-07-29T19:17:01;9.23;;;5.28;;
20984;SDS011;10651;47.552;7.606;2023-07-29T19:19:28;7.93;;;5.10;;
20984;SDS011;10651;47.552;7.606;2023-07-29T19:21:53;5.97;;;4.57;;
20984;SDS011;10651;47.552;7.606;2023-07-29T19:24:19;7.50;;;4.65;;
20984;SDS011;10651;47.552;7.606;2023-07-29T19:26:45;8.13;;;4.80;;
20984;SDS011;10651;47.552;7.606;2023-07-29T19:29:11;7.13;;;5.00;;
20984;SDS011;10651;47.552;7.606;2023-07-29T19:31:42;6.50;;;4.70;;
20984;SDS011;10651;47.552;7.606;2023-07-29T19:34:08;9.10;;;5.07;;
20984;SDS011;10651;47.552;7.606;2023-07-29T19:36:34;6.85;;;4.55;;
20984;SDS011;10651;47.552;7.606;2023-07-29T19:39:01;11.00;;;5.85;;
20984;SDS011;10651;47.552;7.606;2023-07-29T19:41:29;7.20;;;4.85;;
20984;SDS011;10651;47.552;7.606;2023-07-29T19:43:58;8.32;;;4.93;;
20984;SDS011;10651;47.552;7.606;2023-07-29T19:46:24;8.57;;;4.88;;
20984;SDS011;10651;47.552;7.606;2023-07-29T19:48:50;7.88;;;4.75;;
20984;SDS011;10651;47.552;7.606;2023-07-29T19:51:19;9.93;;;4.78;;
20984;SDS011;10651;47.552;7.606;2023-07-29T19:53:46;7.13;;;4.80;;
20984;SDS011;10651;47.552;7.606;2023-07-29T19:56:12;6.85;;;4.80;;
20984;SDS011;10651;47.552;7.606;2023-07-29T19:58:37;8.48;;;5.00;;
20984;SDS011;10651;47.552;7.606;2023-07-29T20:01:03;7.18;;;5.15;;
20984;SDS011;10651;47.552;7.606;2023-07-29T20:03:29;6.65;;;5.40;;
20984;SDS011;10651;47.552;7.606;2023-07-29T20:05:55;8.82;;;5.32;;
20984;SDS011;10651;47.552;7.606;2023-07-29T20:08:21;8.02;;;5.40;;
20984;SDS011;10651;47.552;7.606;2023-07-29T20:10:47;9.80;;;5.20;;
20984;SDS011;10651;47.552;7.606;2023-07-29T20:13:13;10.43;;;5.20;;
20984;SDS011;10651;47.552;7.606;2023-07-29T20:15:39;9.63;;;5.22;;
20984;SDS011;10651;47.552;7.606;2023-07-29T20:18:05;6.55;;;5.07;;
20984;SDS011;10651;47.552;7.606;2023-07-29T20:20:31;8.23;;;5.32;;
20984;SDS011;10651;47.552;7.606;2023-07-29T20:22:56;10.70;;;5.68;;
20984;SDS011;10651;47.552;7.606;2023-07-29T20:25:22;10.32;;;5.60;;
20984;SDS011;10651;47.552;7.606;2023-07-29T20:27:48;10.48;;;5.60;;
20984;SDS011;10651;47.552;7.606;2023-07-29T20:30:14;9.63;;;5.60;;
20984;SDS011;10651;47.552;7.606;2023-07-29T20:32:40;9.63;;;6.88;;
20984;SDS011;10651;47.552;7.606;2023-07-29T20:35:06;11.20;;;6.05;;
20984;SDS011;10651;47.552;7.606;2023-07-29T20:37:32;8.90;;;5.95;;
20984;SDS011;10651;47.552;7.606;2023-07-29T20:39:57;8.77;;;6.13;;
20984;SDS011;10651;47.552;7.606;2023-07-29T20:42:23;13.65;;;6.70;;
20984;SDS011;10651;47.552;7.606;2023-07-29T20:44:49;13.40;;;6.30;;
20984;SDS011;10651;47.552;7.606;2023-07-29T20:47:15;15.07;;;6.30;;
20984;SDS011;10651;47.552;7.606;2023-07-29T20:49:45;10.50;;;5.32;;
20984;SDS011;10651;47.552;7.606;2023-07-29T20:52:11;10.43;;;4.90;;
20984;SDS011;10651;47.552;7.606;2023-07-29T20:54:38;11.20;;;4.43;;
20984;SDS011;10651;47.552;7.606;2023-07-29T20:57:04;9.23;;;5.20;;
20984;SDS011;10651;47.552;7.606;2023-07-29T20:59:32;9.43;;;5.03;;
20984;SDS011;10651;47.552;7.606;2023-07-29T21:01:58;9.70;;;5.40;;
20984;SDS011;10651;47.552;7.606;2023-07-29T21:04:24;13.10;;;6.38;;
20984;SDS011;10651;47.552;7.606;2023-07-29T21:06:49;14.50;;;6.78;;
20984;SDS011;10651;47.552;7.606;2023-07-29T21:09:15;15.27;;;6.10;;
20984;SDS011;10651;47.552;7.606;2023-07-29T21:11:41;10.75;;;5.60;;
20984;SDS011;10651;47.552;7.606;2023-07-29T21:14:06;10.60;;;6.03;;
20984;SDS011;10651;47.552;7.606;2023-07-29T21:16:32;12.88;;;6.20;;
20984;SDS011;10651;47.552;7.606;2023-07-29T21:18:58;10.55;;;5.65;;